Salina, UT (84654)

9:55 AM MDT on May 06, 2015 (GMT -0600)
Salina--West Fields | | Change Station
CLOSE
Current Station
Personal Weather Station
Location: Salina, UT
Elevation: 5187 ft
Nearby Weather Stations

Elev 5187 ft 38.96 °N, 111.90 °W | Updated 8 seconds ago

Overcast
Overcast
52.0 °F
Feels Like 52.0 °F
N
0.0
Wind Variable Wind from NW
Gusts 0.0 mph

Today
High -- | Low -- °F
--% Chance of Precip.
Yesterday
High -- | Low -- °F
Precip. -- in
6:23 AM 8:24 PM
Waning Gibbous, 93% visible
Pressure 29.85 in
Visibility 10.0 miles
Clouds Scattered Clouds 11000 ft
Dew Point 48 °F
Humidity 85%
Rainfall 0.18 in
Snow Depth Not available.
UV 2.0 out of 12
Pollen 4.70 out of 12
Air Quality Not available.
Flu Activity Regional
METAR KMLF 061452Z AUTO 21011KT 10SM SCT110 11/08 A2985

More Conditions Fewer Conditions

Pressure 29.85 in
Visibility 10.0 miles
Clouds Scattered Clouds 11000 ft
Dew Point 48 °F
Humidity 85%
Rainfall 0.18 in
Snow Depth Not available.
UV 2.0 out of 12
Pollen 4.70 out of 12
Air Quality Not available.
Flu Activity Regional
METAR KMLF 061452Z AUTO 21011KT 10SM SCT110 11/08 A2985

More Conditions Fewer Conditions

Nowcast | as of 9:42 am MDT on May 6, 2015

Scattered showers and thunderstorms continue to develop across the region. At 945 am...the most widespread shower activity was located from near Delta to Richfield and Capitol Reef National Park. Isolated showers and thunderstorms were also developing along most mountain ranges across northwest Utah. Through the remainder of the morning...expect to see more widespread activity develop across central and portions of northern Utah...with just a few storms in the mountains of southern Utah. The greatest threats include cloud to ground lightning and locally gusty and erratic winds. The strongest storms may produce locally heavy rainfall and small hail. If outdoors...seek the safety of shelter when threatening weather approaches.

×

10-Day Weather Forecast

Almanac

Astronomy

May. 06, 2015 Rise Set
Actual Time
Civil Twilight
Nautical Twilight
Astronomical Twilight
Moon
Length of Visible Light
Length of Day
Tomorrow will be .
, % of the Moon is Illuminated

Today's Extremes

State Highs State Lows

Community

WunderPhotos

Upload Photos

1,818,938 photos uploaded!

WunderBlogs® & News

Nearby

Air Quality

  Air Quality AQ Index Pollutant
Not available.

Snow Depth

Station Depth Elevation

Earthquake Activity

City Distance Mag. Time & Date
Minimum magnitude displayed is 2.5.

Coastal Water Temperatures

Place Temperature

Stations

Nearby Weather Stations

Station Location Temp. Windchill Dew Point Humidity Wind Precip. Elev Updated Type